sensor_id;sensor_type;location;lat;lon;timestamp;P1;durP1;ratioP1;P2;durP2;ratioP2
52564;SDS011;38460;53.106;7.004;2023-05-19T00:00:16;8.52;;;4.70;;
52564;SDS011;38460;53.106;7.004;2023-05-19T00:02:43;14.55;;;6.10;;
52564;SDS011;38460;53.106;7.004;2023-05-19T00:05:10;8.70;;;4.88;;
52564;SDS011;38460;53.106;7.004;2023-05-19T00:07:39;13.05;;;5.80;;
52564;SDS011;38460;53.106;7.004;2023-05-19T00:10:08;12.40;;;5.75;;
52564;SDS011;38460;53.106;7.004;2023-05-19T00:12:34;12.77;;;5.28;;
52564;SDS011;38460;53.106;7.004;2023-05-19T00:15:01;15.48;;;5.97;;
52564;SDS011;38460;53.106;7.004;2023-05-19T00:17:27;10.43;;;5.68;;
52564;SDS011;38460;53.106;7.004;2023-05-19T00:19:53;10.15;;;5.18;;
52564;SDS011;38460;53.106;7.004;2023-05-19T00:22:19;11.25;;;5.57;;
52564;SDS011;38460;53.106;7.004;2023-05-19T00:24:45;11.52;;;6.00;;
52564;SDS011;38460;53.106;7.004;2023-05-19T00:27:10;8.88;;;5.05;;
52564;SDS011;38460;53.106;7.004;2023-05-19T00:29:36;13.80;;;6.18;;
52564;SDS011;38460;53.106;7.004;2023-05-19T00:32:02;10.88;;;5.47;;
52564;SDS011;38460;53.106;7.004;2023-05-19T00:34:28;11.30;;;5.00;;
52564;SDS011;38460;53.106;7.004;2023-05-19T00:36:53;8.45;;;5.25;;
52564;SDS011;38460;53.106;7.004;2023-05-19T00:39:19;13.32;;;5.55;;
52564;SDS011;38460;53.106;7.004;2023-05-19T00:41:45;10.25;;;5.25;;
52564;SDS011;38460;53.106;7.004;2023-05-19T00:44:10;12.85;;;5.80;;
52564;SDS011;38460;53.106;7.004;2023-05-19T00:46:36;9.75;;;4.43;;
52564;SDS011;38460;53.106;7.004;2023-05-19T00:49:02;11.88;;;5.10;;
52564;SDS011;38460;53.106;7.004;2023-05-19T00:51:28;10.07;;;4.47;;
52564;SDS011;38460;53.106;7.004;2023-05-19T00:53:55;10.07;;;4.90;;
52564;SDS011;38460;53.106;7.004;2023-05-19T00:56:21;14.57;;;5.18;;
52564;SDS011;38460;53.106;7.004;2023-05-19T00:58:48;12.80;;;5.80;;
52564;SDS011;38460;53.106;7.004;2023-05-19T01:01:15;15.38;;;5.03;;
52564;SDS011;38460;53.106;7.004;2023-05-19T01:03:43;12.32;;;4.70;;
52564;SDS011;38460;53.106;7.004;2023-05-19T01:06:10;10.90;;;4.68;;
52564;SDS011;38460;53.106;7.004;2023-05-19T01:08:37;14.00;;;5.20;;
52564;SDS011;38460;53.106;7.004;2023-05-19T01:11:03;16.35;;;5.35;;
52564;SDS011;38460;53.106;7.004;2023-05-19T01:13:30;22.83;;;6.38;;
52564;SDS011;38460;53.106;7.004;2023-05-19T01:16:02;18.33;;;5.22;;
52564;SDS011;38460;53.106;7.004;2023-05-19T01:25:13;13.25;;;4.85;;
52564;SDS011;38460;53.106;7.004;2023-05-19T01:32:48;11.95;;;5.40;;
52564;SDS011;38460;53.106;7.004;2023-05-19T01:35:17;12.00;;;5.78;;
52564;SDS011;38460;53.106;7.004;2023-05-19T01:37:43;12.52;;;5.07;;
52564;SDS011;38460;53.106;7.004;2023-05-19T01:40:10;12.90;;;5.45;;
52564;SDS011;38460;53.106;7.004;2023-05-19T01:42:37;10.88;;;4.97;;
52564;SDS011;38460;53.106;7.004;2023-05-19T01:45:04;10.13;;;4.45;;
52564;SDS011;38460;53.106;7.004;2023-05-19T01:47:34;11.50;;;5.07;;
52564;SDS011;38460;53.106;7.004;2023-05-19T01:50:04;11.98;;;5.88;;
52564;SDS011;38460;53.106;7.004;2023-05-19T01:52:30;12.52;;;4.65;;
52564;SDS011;38460;53.106;7.004;2023-05-19T01:54:57;8.40;;;3.60;;
52564;SDS011;38460;53.106;7.004;2023-05-19T02:00:11;8.55;;;4.00;;
52564;SDS011;38460;53.106;7.004;2023-05-19T02:02:58;10.30;;;3.85;;
52564;SDS011;38460;53.106;7.004;2023-05-19T02:09:11;8.43;;;4.30;;
52564;SDS011;38460;53.106;7.004;2023-05-19T02:11:51;10.82;;;4.05;;
52564;SDS011;38460;53.106;7.004;2023-05-19T02:14:24;11.50;;;5.43;;
52564;SDS011;38460;53.106;7.004;2023-05-19T02:16:54;9.88;;;4.25;;
52564;SDS011;38460;53.106;7.004;2023-05-19T02:21:50;11.13;;;4.85;;
52564;SDS011;38460;53.106;7.004;2023-05-19T02:24:16;17.75;;;5.80;;
52564;SDS011;38460;53.106;7.004;2023-05-19T02:26:44;10.05;;;5.50;;
52564;SDS011;38460;53.106;7.004;2023-05-19T02:29:10;11.88;;;5.10;;
52564;SDS011;38460;53.106;7.004;2023-05-19T02:31:36;10.73;;;5.53;;
52564;SDS011;38460;53.106;7.004;2023-05-19T02:34:02;9.85;;;4.50;;
52564;SDS011;38460;53.106;7.004;2023-05-19T02:36:29;11.75;;;5.35;;
52564;SDS011;38460;53.106;7.004;2023-05-19T02:38:59;15.80;;;5.37;;
52564;SDS011;38460;53.106;7.004;2023-05-19T02:41:26;12.38;;;5.60;;
52564;SDS011;38460;53.106;7.004;2023-05-19T02:43:52;16.20;;;5.88;;
52564;SDS011;38460;53.106;7.004;2023-05-19T02:46:18;13.27;;;5.07;;
52564;SDS011;38460;53.106;7.004;2023-05-19T02:48:44;15.35;;;6.03;;
52564;SDS011;38460;53.106;7.004;2023-05-19T02:51:09;16.38;;;5.85;;
52564;SDS011;38460;53.106;7.004;2023-05-19T02:53:35;11.77;;;5.70;;
52564;SDS011;38460;53.106;7.004;2023-05-19T02:56:01;12.05;;;5.75;;
52564;SDS011;38460;53.106;7.004;2023-05-19T02:58:27;15.18;;;6.15;;
52564;SDS011;38460;53.106;7.004;2023-05-19T03:00:53;14.20;;;6.28;;
52564;SDS011;38460;53.106;7.004;2023-05-19T03:03:20;11.55;;;6.20;;
52564;SDS011;38460;53.106;7.004;2023-05-19T03:05:45;13.88;;;6.13;;
52564;SDS011;38460;53.106;7.004;2023-05-19T03:08:12;12.98;;;6.03;;
52564;SDS011;38460;53.106;7.004;2023-05-19T03:10:37;15.43;;;6.28;;
52564;SDS011;38460;53.106;7.004;2023-05-19T03:13:03;13.15;;;5.47;;
52564;SDS011;38460;53.106;7.004;2023-05-19T03:15:29;14.70;;;6.50;;
52564;SDS011;38460;53.106;7.004;2023-05-19T03:17:55;13.43;;;5.72;;
52564;SDS011;38460;53.106;7.004;2023-05-19T03:20:21;17.35;;;7.53;;
52564;SDS011;38460;53.106;7.004;2023-05-19T03:22:47;12.75;;;6.32;;
52564;SDS011;38460;53.106;7.004;2023-05-19T03:25:12;17.40;;;7.10;;
52564;SDS011;38460;53.106;7.004;2023-05-19T03:27:38;17.33;;;7.13;;
52564;SDS011;38460;53.106;7.004;2023-05-19T03:30:04;11.65;;;5.35;;
52564;SDS011;38460;53.106;7.004;2023-05-19T03:32:30;16.80;;;6.28;;
52564;SDS011;38460;53.106;7.004;2023-05-19T03:35:02;14.07;;;6.43;;
52564;SDS011;38460;53.106;7.004;2023-05-19T03:37:29;19.35;;;6.80;;
52564;SDS011;38460;53.106;7.004;2023-05-19T03:39:56;13.35;;;7.32;;
52564;SDS011;38460;53.106;7.004;2023-05-19T03:42:22;19.15;;;6.18;;
52564;SDS011;38460;53.106;7.004;2023-05-19T03:44:48;11.30;;;5.30;;
52564;SDS011;38460;53.106;7.004;2023-05-19T03:47:14;12.32;;;6.10;;
52564;SDS011;38460;53.106;7.004;2023-05-19T03:49:40;10.52;;;6.45;;
52564;SDS011;38460;53.106;7.004;2023-05-19T03:52:05;14.25;;;6.90;;
52564;SDS011;38460;53.106;7.004;2023-05-19T03:54:31;11.98;;;4.97;;
52564;SDS011;38460;53.106;7.004;2023-05-19T03:56:57;10.77;;;6.18;;
52564;SDS011;38460;53.106;7.004;2023-05-19T03:59:23;15.70;;;6.70;;
52564;SDS011;38460;53.106;7.004;2023-05-19T04:01:49;15.30;;;5.95;;
52564;SDS011;38460;53.106;7.004;2023-05-19T04:04:15;11.32;;;6.13;;
52564;SDS011;38460;53.106;7.004;2023-05-19T04:06:41;10.73;;;5.25;;
52564;SDS011;38460;53.106;7.004;2023-05-19T04:09:13;11.45;;;6.03;;
52564;SDS011;38460;53.106;7.004;2023-05-19T04:11:40;13.80;;;6.32;;
52564;SDS011;38460;53.106;7.004;2023-05-19T04:14:07;10.38;;;5.20;;
52564;SDS011;38460;53.106;7.004;2023-05-19T04:16:33;9.48;;;5.00;;
52564;SDS011;38460;53.106;7.004;2023-05-19T04:19:00;11.40;;;5.53;;
52564;SDS011;38460;53.106;7.004;2023-05-19T04:21:26;9.07;;;5.45;;
52564;SDS011;38460;53.106;7.004;2023-05-19T04:23:52;13.88;;;5.65;;
52564;SDS011;38460;53.106;7.004;2023-05-19T04:26:18;12.38;;;5.78;;
52564;SDS011;38460;53.106;7.004;2023-05-19T04:28:46;17.38;;;7.10;;
52564;SDS011;38460;53.106;7.004;2023-05-19T04:31:12;12.82;;;6.45;;
52564;SDS011;38460;53.106;7.004;2023-05-19T04:33:39;12.68;;;6.47;;
52564;SDS011;38460;53.106;7.004;2023-05-19T04:36:05;14.57;;;6.22;;
52564;SDS011;38460;53.106;7.004;2023-05-19T04:38:34;12.68;;;5.70;;
52564;SDS011;38460;53.106;7.004;2023-05-19T04:41:01;15.15;;;6.95;;
52564;SDS011;38460;53.106;7.004;2023-05-19T04:43:28;15.13;;;6.20;;
52564;SDS011;38460;53.106;7.004;2023-05-19T04:45:53;10.80;;;5.97;;
52564;SDS011;38460;53.106;7.004;2023-05-19T04:48:19;10.82;;;5.43;;
52564;SDS011;38460;53.106;7.004;2023-05-19T04:50:48;13.10;;;7.07;;
52564;SDS011;38460;53.106;7.004;2023-05-19T04:53:16;10.85;;;5.93;;
52564;SDS011;38460;53.106;7.004;2023-05-19T04:55:42;11.15;;;6.35;;
52564;SDS011;38460;53.106;7.004;2023-05-19T04:58:08;10.90;;;6.38;;
52564;SDS011;38460;53.106;7.004;2023-05-19T05:00:35;11.02;;;6.20;;
52564;SDS011;38460;53.106;7.004;2023-05-19T05:03:01;13.38;;;6.15;;
52564;SDS011;38460;53.106;7.004;2023-05-19T05:05:30;17.00;;;6.05;;
52564;SDS011;38460;53.106;7.004;2023-05-19T05:07:57;11.45;;;5.90;;
52564;SDS011;38460;53.106;7.004;2023-05-19T05:10:23;11.18;;;5.63;;
52564;SDS011;38460;53.106;7.004;2023-05-19T05:12:49;10.43;;;5.43;;
52564;SDS011;38460;53.106;7.004;2023-05-19T05:15:15;11.55;;;5.30;;
52564;SDS011;38460;53.106;7.004;2023-05-19T05:17:41;9.45;;;5.30;;
52564;SDS011;38460;53.106;7.004;2023-05-19T05:20:08;10.35;;;5.50;;
52564;SDS011;38460;53.106;7.004;2023-05-19T05:22:35;10.25;;;5.45;;
52564;SDS011;38460;53.106;7.004;2023-05-19T05:25:03;11.25;;;6.07;;
52564;SDS011;38460;53.106;7.004;2023-05-19T05:27:29;11.90;;;5.78;;
52564;SDS011;38460;53.106;7.004;2023-05-19T05:29:55;10.02;;;5.60;;
52564;SDS011;38460;53.106;7.004;2023-05-19T05:32:21;10.07;;;5.40;;
52564;SDS011;38460;53.106;7.004;2023-05-19T05:34:47;9.40;;;5.68;;
52564;SDS011;38460;53.106;7.004;2023-05-19T05:37:14;9.60;;;4.90;;
52564;SDS011;38460;53.106;7.004;2023-05-19T05:39:40;14.50;;;5.40;;
52564;SDS011;38460;53.106;7.004;2023-05-19T05:42:06;10.93;;;5.82;;
52564;SDS011;38460;53.106;7.004;2023-05-19T05:44:36;13.93;;;5.25;;
52564;SDS011;38460;53.106;7.004;2023-05-19T05:47:02;9.98;;;5.93;;
52564;SDS011;38460;53.106;7.004;2023-05-19T05:49:28;9.10;;;4.82;;
52564;SDS011;38460;53.106;7.004;2023-05-19T05:51:54;10.95;;;6.03;;
52564;SDS011;38460;53.106;7.004;2023-05-19T05:54:23;9.80;;;5.57;;
52564;SDS011;38460;53.106;7.004;2023-05-19T05:56:49;9.57;;;5.30;;
52564;SDS011;38460;53.106;7.004;2023-05-19T05:59:15;12.52;;;6.22;;
52564;SDS011;38460;53.106;7.004;2023-05-19T06:01:40;9.82;;;5.68;;
52564;SDS011;38460;53.106;7.004;2023-05-19T06:04:08;9.52;;;5.43;;
52564;SDS011;38460;53.106;7.004;2023-05-19T06:06:34;9.45;;;4.78;;
52564;SDS011;38460;53.106;7.004;2023-05-19T06:09:02;8.75;;;5.30;;
52564;SDS011;38460;53.106;7.004;2023-05-19T06:11:28;9.18;;;5.20;;
52564;SDS011;38460;53.106;7.004;2023-05-19T06:13:55;10.00;;;4.75;;
52564;SDS011;38460;53.106;7.004;2023-05-19T06:16:20;10.35;;;5.38;;
52564;SDS011;38460;53.106;7.004;2023-05-19T06:18:46;8.70;;;5.00;;
52564;SDS011;38460;53.106;7.004;2023-05-19T06:21:12;8.32;;;5.47;;
52564;SDS011;38460;53.106;7.004;2023-05-19T06:23:38;13.77;;;5.93;;
52564;SDS011;38460;53.106;7.004;2023-05-19T06:26:05;10.13;;;5.07;;
52564;SDS011;38460;53.106;7.004;2023-05-19T06:28:31;12.60;;;5.50;;
52564;SDS011;38460;53.106;7.004;2023-05-19T06:30:57;10.00;;;6.30;;
52564;SDS011;38460;53.106;7.004;2023-05-19T06:33:24;8.45;;;4.88;;
52564;SDS011;38460;53.106;7.004;2023-05-19T06:35:50;8.38;;;5.05;;
52564;SDS011;38460;53.106;7.004;2023-05-19T06:38:16;10.45;;;4.93;;
52564;SDS011;38460;53.106;7.004;2023-05-19T06:40:41;7.35;;;3.85;;
52564;SDS011;38460;53.106;7.004;2023-05-19T06:43:07;10.55;;;4.75;;
52564;SDS011;38460;53.106;7.004;2023-05-19T06:45:33;11.70;;;4.70;;
52564;SDS011;38460;53.106;7.004;2023-05-19T06:47:59;8.82;;;5.22;;
52564;SDS011;38460;53.106;7.004;2023-05-19T06:50:25;9.07;;;5.13;;
52564;SDS011;38460;53.106;7.004;2023-05-19T06:52:50;7.70;;;4.35;;
52564;SDS011;38460;53.106;7.004;2023-05-19T06:55:16;9.70;;;4.63;;
52564;SDS011;38460;53.106;7.004;2023-05-19T06:57:43;8.05;;;4.40;;
52564;SDS011;38460;53.106;7.004;2023-05-19T07:00:08;8.55;;;4.22;;
52564;SDS011;38460;53.106;7.004;2023-05-19T07:02:37;9.15;;;4.60;;
52564;SDS011;38460;53.106;7.004;2023-05-19T07:05:03;8.88;;;4.32;;
52564;SDS011;38460;53.106;7.004;2023-05-19T07:07:29;6.20;;;3.80;;
52564;SDS011;38460;53.106;7.004;2023-05-19T07:09:55;7.95;;;4.15;;
52564;SDS011;38460;53.106;7.004;2023-05-19T07:12:21;9.73;;;5.22;;
52564;SDS011;38460;53.106;7.004;2023-05-19T07:14:47;8.95;;;3.67;;
52564;SDS011;38460;53.106;7.004;2023-05-19T07:17:12;6.70;;;3.80;;
52564;SDS011;38460;53.106;7.004;2023-05-19T07:19:38;5.90;;;4.05;;
52564;SDS011;38460;53.106;7.004;2023-05-19T07:22:04;10.32;;;4.65;;
52564;SDS011;38460;53.106;7.004;2023-05-19T07:24:39;6.40;;;3.47;;
52564;SDS011;38460;53.106;7.004;2023-05-19T07:27:05;9.75;;;4.03;;
52564;SDS011;38460;53.106;7.004;2023-05-19T07:29:31;7.35;;;3.08;;
52564;SDS011;38460;53.106;7.004;2023-05-19T07:31:56;9.35;;;3.30;;
52564;SDS011;38460;53.106;7.004;2023-05-19T07:34:23;6.45;;;3.00;;
52564;SDS011;38460;53.106;7.004;2023-05-19T07:36:49;5.63;;;2.88;;
52564;SDS011;38460;53.106;7.004;2023-05-19T07:39:16;6.18;;;3.33;;
52564;SDS011;38460;53.106;7.004;2023-05-19T07:41:42;5.35;;;3.10;;
52564;SDS011;38460;53.106;7.004;2023-05-19T07:44:07;8.95;;;3.20;;
52564;SDS011;38460;53.106;7.004;2023-05-19T07:46:34;6.75;;;3.05;;
52564;SDS011;38460;53.106;7.004;2023-05-19T07:49:03;8.02;;;3.90;;
52564;SDS011;38460;53.106;7.004;2023-05-19T07:51:28;7.43;;;3.38;;
52564;SDS011;38460;53.106;7.004;2023-05-19T07:53:55;6.82;;;2.75;;
52564;SDS011;38460;53.106;7.004;2023-05-19T07:56:21;6.85;;;3.45;;
52564;SDS011;38460;53.106;7.004;2023-05-19T07:58:48;7.00;;;3.22;;
52564;SDS011;38460;53.106;7.004;2023-05-19T08:01:14;5.95;;;2.92;;
52564;SDS011;38460;53.106;7.004;2023-05-19T08:03:40;5.93;;;3.00;;
52564;SDS011;38460;53.106;7.004;2023-05-19T08:06:06;5.30;;;2.83;;
52564;SDS011;38460;53.106;7.004;2023-05-19T08:08:32;8.60;;;2.70;;
52564;SDS011;38460;53.106;7.004;2023-05-19T08:11:00;8.82;;;2.88;;
52564;SDS011;38460;53.106;7.004;2023-05-19T08:13:28;4.63;;;2.40;;
52564;SDS011;38460;53.106;7.004;2023-05-19T08:15:54;5.57;;;2.13;;
52564;SDS011;38460;53.106;7.004;2023-05-19T08:18:23;5.18;;;2.45;;
52564;SDS011;38460;53.106;7.004;2023-05-19T08:20:52;5.22;;;2.65;;
52564;SDS011;38460;53.106;7.004;2023-05-19T08:23:18;6.22;;;2.88;;
52564;SDS011;38460;53.106;7.004;2023-05-19T08:25:43;6.80;;;2.45;;
52564;SDS011;38460;53.106;7.004;2023-05-19T08:28:09;6.68;;;2.53;;
52564;SDS011;38460;53.106;7.004;2023-05-19T08:30:35;9.07;;;3.42;;
52564;SDS011;38460;53.106;7.004;2023-05-19T08:33:01;8.43;;;3.47;;
52564;SDS011;38460;53.106;7.004;2023-05-19T08:35:27;12.77;;;3.13;;
52564;SDS011;38460;53.106;7.004;2023-05-19T08:37:53;4.90;;;2.10;;
52564;SDS011;38460;53.106;7.004;2023-05-19T08:40:19;6.38;;;2.78;;
52564;SDS011;38460;53.106;7.004;2023-05-19T08:42:45;4.47;;;2.60;;
52564;SDS011;38460;53.106;7.004;2023-05-19T08:45:11;5.70;;;2.40;;
52564;SDS011;38460;53.106;7.004;2023-05-19T08:47:37;4.32;;;2.35;;
52564;SDS011;38460;53.106;7.004;2023-05-19T08:50:05;6.28;;;2.67;;
52564;SDS011;38460;53.106;7.004;2023-05-19T08:52:40;3.75;;;2.15;;
52564;SDS011;38460;53.106;7.004;2023-05-19T08:55:12;5.60;;;2.15;;
52564;SDS011;38460;53.106;7.004;2023-05-19T08:57:46;4.75;;;2.20;;
52564;SDS011;38460;53.106;7.004;2023-05-19T09:00:14;8.27;;;2.80;;
52564;SDS011;38460;53.106;7.004;2023-05-19T09:02:41;7.00;;;2.55;;
52564;SDS011;38460;53.106;7.004;2023-05-19T09:05:07;6.93;;;2.60;;
52564;SDS011;38460;53.106;7.004;2023-05-19T09:07:34;5.65;;;2.55;;
52564;SDS011;38460;53.106;7.004;2023-05-19T09:10:02;6.18;;;2.50;;
52564;SDS011;38460;53.106;7.004;2023-05-19T09:12:30;6.78;;;2.50;;
52564;SDS011;38460;53.106;7.004;2023-05-19T09:14:56;5.32;;;2.63;;
52564;SDS011;38460;53.106;7.004;2023-05-19T09:17:22;8.30;;;2.42;;
52564;SDS011;38460;53.106;7.004;2023-05-19T09:19:48;5.65;;;2.25;;
52564;SDS011;38460;53.106;7.004;2023-05-19T09:22:15;7.30;;;2.30;;
52564;SDS011;38460;53.106;7.004;2023-05-19T09:24:44;6.03;;;2.53;;
52564;SDS011;38460;53.106;7.004;2023-05-19T09:27:13;8.82;;;3.03;;
52564;SDS011;38460;53.106;7.004;2023-05-19T09:29:40;5.93;;;3.00;;
52564;SDS011;38460;53.106;7.004;2023-05-19T09:32:07;6.70;;;3.15;;
52564;SDS011;38460;53.106;7.004;2023-05-19T09:34:32;11.07;;;2.90;;
52564;SDS011;38460;53.106;7.004;2023-05-19T09:36:58;5.35;;;3.00;;
52564;SDS011;38460;53.106;7.004;2023-05-19T09:39:24;5.80;;;3.55;;
52564;SDS011;38460;53.106;7.004;2023-05-19T09:41:53;10.00;;;2.78;;
52564;SDS011;38460;53.106;7.004;2023-05-19T09:46:47;6.72;;;2.88;;
52564;SDS011;38460;53.106;7.004;2023-05-19T09:49:25;7.60;;;3.22;;
52564;SDS011;38460;53.106;7.004;2023-05-19T09:54:32;6.75;;;3.03;;
52564;SDS011;38460;53.106;7.004;2023-05-19T09:56:59;9.18;;;3.20;;
52564;SDS011;38460;53.106;7.004;2023-05-19T09:59:25;7.85;;;3.30;;
52564;SDS011;38460;53.106;7.004;2023-05-19T10:01:53;6.15;;;2.70;;
52564;SDS011;38460;53.106;7.004;2023-05-19T10:04:21;6.65;;;3.45;;
52564;SDS011;38460;53.106;7.004;2023-05-19T10:06:48;6.70;;;3.22;;
52564;SDS011;38460;53.106;7.004;2023-05-19T10:09:24;7.03;;;3.35;;
52564;SDS011;38460;53.106;7.004;2023-05-19T10:11:52;7.35;;;3.53;;
52564;SDS011;38460;53.106;7.004;2023-05-19T10:14:22;8.48;;;3.47;;
52564;SDS011;38460;53.106;7.004;2023-05-19T10:16:50;6.55;;;4.25;;
52564;SDS011;38460;53.106;7.004;2023-05-19T10:19:20;9.15;;;3.95;;
52564;SDS011;38460;53.106;7.004;2023-05-19T10:21:52;6.68;;;3.13;;
52564;SDS011;38460;53.106;7.004;2023-05-19T10:24:19;5.97;;;2.85;;
52564;SDS011;38460;53.106;7.004;2023-05-19T10:26:47;5.72;;;2.70;;
52564;SDS011;38460;53.106;7.004;2023-05-19T10:29:35;6.82;;;3.35;;
52564;SDS011;38460;53.106;7.004;2023-05-19T10:32:09;8.00;;;3.28;;
52564;SDS011;38460;53.106;7.004;2023-05-19T10:34:49;6.93;;;3.10;;
52564;SDS011;38460;53.106;7.004;2023-05-19T10:40:52;7.13;;;3.05;;
52564;SDS011;38460;53.106;7.004;2023-05-19T10:45:39;7.55;;;3.30;;
52564;SDS011;38460;53.106;7.004;2023-05-19T10:48:12;7.30;;;3.08;;
52564;SDS011;38460;53.106;7.004;2023-05-19T10:50:39;6.05;;;3.13;;
52564;SDS011;38460;53.106;7.004;2023-05-19T10:53:12;5.65;;;3.13;;
52564;SDS011;38460;53.106;7.004;2023-05-19T11:01:14;6.43;;;2.53;;
52564;SDS011;38460;53.106;7.004;2023-05-19T11:03:45;8.68;;;2.70;;
52564;SDS011;38460;53.106;7.004;2023-05-19T11:06:28;6.50;;;3.17;;
52564;SDS011;38460;53.106;7.004;2023-05-19T11:11:51;9.07;;;3.47;;
52564;SDS011;38460;53.106;7.004;2023-05-19T11:14:36;8.23;;;2.92;;
52564;SDS011;38460;53.106;7.004;2023-05-19T11:17:04;7.35;;;3.58;;
52564;SDS011;38460;53.106;7.004;2023-05-19T11:19:38;8.45;;;3.20;;
52564;SDS011;38460;53.106;7.004;2023-05-19T11:22:09;5.07;;;3.17;;
52564;SDS011;38460;53.106;7.004;2023-05-19T11:24:43;8.30;;;2.88;;
52564;SDS011;38460;53.106;7.004;2023-05-19T11:30:00;6.75;;;3.25;;
52564;SDS011;38460;53.106;7.004;2023-05-19T11:32:33;8.73;;;4.07;;
52564;SDS011;38460;53.106;7.004;2023-05-19T11:35:00;8.10;;;3.38;;
52564;SDS011;38460;53.106;7.004;2023-05-19T11:37:26;6.25;;;3.60;;
52564;SDS011;38460;53.106;7.004;2023-05-19T11:39:56;7.05;;;3.13;;
52564;SDS011;38460;53.106;7.004;2023-05-19T11:42:22;9.85;;;4.00;;
52564;SDS011;38460;53.106;7.004;2023-05-19T11:44:48;6.40;;;3.25;;
52564;SDS011;38460;53.106;7.004;2023-05-19T11:47:14;4.68;;;3.35;;
52564;SDS011;38460;53.106;7.004;2023-05-19T11:49:42;6.93;;;2.92;;
52564;SDS011;38460;53.106;7.004;2023-05-19T11:52:12;7.40;;;3.67;;
52564;SDS011;38460;53.106;7.004;2023-05-19T11:54:38;9.00;;;3.38;;
52564;SDS011;38460;53.106;7.004;2023-05-19T11:57:07;7.72;;;2.83;;
52564;SDS011;38460;53.106;7.004;2023-05-19T11:59:36;7.88;;;2.78;;
52564;SDS011;38460;53.106;7.004;2023-05-19T12:02:17;8.32;;;3.08;;
52564;SDS011;38460;53.106;7.004;2023-05-19T12:04:48;7.38;;;2.78;;
52564;SDS011;38460;53.106;7.004;2023-05-19T12:07:15;6.32;;;3.15;;
52564;SDS011;38460;53.106;7.004;2023-05-19T12:09:49;6.15;;;2.90;;
52564;SDS011;38460;53.106;7.004;2023-05-19T12:12:16;5.95;;;2.50;;
52564;SDS011;38460;53.106;7.004;2023-05-19T12:14:46;6.85;;;2.97;;
52564;SDS011;38460;53.106;7.004;2023-05-19T12:17:13;4.43;;;2.22;;
52564;SDS011;38460;53.106;7.004;2023-05-19T12:19:44;5.72;;;2.22;;
52564;SDS011;38460;53.106;7.004;2023-05-19T12:22:11;5.20;;;2.38;;
52564;SDS011;38460;53.106;7.004;2023-05-19T12:24:37;10.90;;;2.60;;
52564;SDS011;38460;53.106;7.004;2023-05-19T12:27:10;5.10;;;2.40;;
52564;SDS011;38460;53.106;7.004;2023-05-19T12:29:37;4.90;;;2.17;;
52564;SDS011;38460;53.106;7.004;2023-05-19T12:32:06;5.32;;;2.58;;
52564;SDS011;38460;53.106;7.004;2023-05-19T12:34:36;6.05;;;2.25;;
52564;SDS011;38460;53.106;7.004;2023-05-19T12:37:05;4.18;;;2.08;;
52564;SDS011;38460;53.106;7.004;2023-05-19T12:39:31;3.45;;;1.88;;
52564;SDS011;38460;53.106;7.004;2023-05-19T12:42:07;3.95;;;2.00;;
52564;SDS011;38460;53.106;7.004;2023-05-19T12:44:37;6.65;;;2.22;;
52564;SDS011;38460;53.106;7.004;2023-05-19T12:47:06;8.10;;;3.00;;
52564;SDS011;38460;53.106;7.004;2023-05-19T12:49:33;7.43;;;2.42;;
52564;SDS011;38460;53.106;7.004;2023-05-19T12:52:01;7.93;;;2.55;;
52564;SDS011;38460;53.106;7.004;2023-05-19T12:54:31;5.68;;;2.28;;
52564;SDS011;38460;53.106;7.004;2023-05-19T12:56:58;4.95;;;2.20;;
52564;SDS011;38460;53.106;7.004;2023-05-19T12:59:23;4.95;;;2.15;;
52564;SDS011;38460;53.106;7.004;2023-05-19T13:01:57;5.38;;;2.28;;
52564;SDS011;38460;53.106;7.004;2023-05-19T13:04:23;5.85;;;2.58;;
52564;SDS011;38460;53.106;7.004;2023-05-19T13:06:50;6.13;;;2.20;;
52564;SDS011;38460;53.106;7.004;2023-05-19T13:09:16;5.93;;;2.70;;
52564;SDS011;38460;53.106;7.004;2023-05-19T13:11:43;6.75;;;2.70;;
52564;SDS011;38460;53.106;7.004;2023-05-19T13:14:12;6.47;;;2.63;;
52564;SDS011;38460;53.106;7.004;2023-05-19T13:16:39;5.97;;;2.55;;
52564;SDS011;38460;53.106;7.004;2023-05-19T13:19:05;5.25;;;2.63;;
52564;SDS011;38460;53.106;7.004;2023-05-19T13:21:31;5.55;;;2.90;;
52564;SDS011;38460;53.106;7.004;2023-05-19T13:23:57;6.78;;;2.78;;
52564;SDS011;38460;53.106;7.004;2023-05-19T13:26:23;7.13;;;2.53;;
52564;SDS011;38460;53.106;7.004;2023-05-19T13:28:49;7.35;;;2.53;;
52564;SDS011;38460;53.106;7.004;2023-05-19T13:31:14;4.65;;;2.58;;
52564;SDS011;38460;53.106;7.004;2023-05-19T13:33:40;6.57;;;2.67;;
52564;SDS011;38460;53.106;7.004;2023-05-19T13:36:06;6.75;;;2.50;;
52564;SDS011;38460;53.106;7.004;2023-05-19T13:38:31;5.95;;;2.65;;
52564;SDS011;38460;53.106;7.004;2023-05-19T13:40:57;6.03;;;2.60;;
52564;SDS011;38460;53.106;7.004;2023-05-19T13:43:23;4.70;;;2.72;;
52564;SDS011;38460;53.106;7.004;2023-05-19T13:45:48;5.60;;;2.63;;
52564;SDS011;38460;53.106;7.004;2023-05-19T13:48:14;6.10;;;2.88;;
52564;SDS011;38460;53.106;7.004;2023-05-19T13:50:40;4.85;;;2.83;;
52564;SDS011;38460;53.106;7.004;2023-05-19T13:53:06;7.35;;;2.85;;
52564;SDS011;38460;53.106;7.004;2023-05-19T13:55:32;6.70;;;2.90;;
52564;SDS011;38460;53.106;7.004;2023-05-19T13:57:58;5.57;;;2.90;;
52564;SDS011;38460;53.106;7.004;2023-05-19T14:00:24;3.88;;;2.80;;
52564;SDS011;38460;53.106;7.004;2023-05-19T14:02:49;6.53;;;3.28;;
52564;SDS011;38460;53.106;7.004;2023-05-19T14:05:15;4.07;;;2.80;;
52564;SDS011;38460;53.106;7.004;2023-05-19T14:07:41;7.40;;;3.22;;
52564;SDS011;38460;53.106;7.004;2023-05-19T14:10:08;6.05;;;2.67;;
52564;SDS011;38460;53.106;7.004;2023-05-19T14:12:34;10.30;;;3.25;;
52564;SDS011;38460;53.106;7.004;2023-05-19T14:15:00;5.65;;;2.35;;
52564;SDS011;38460;53.106;7.004;2023-05-19T14:17:26;5.45;;;2.97;;
52564;SDS011;38460;53.106;7.004;2023-05-19T14:19:52;5.18;;;2.30;;
52564;SDS011;38460;53.106;7.004;2023-05-19T14:22:18;6.70;;;2.47;;
52564;SDS011;38460;53.106;7.004;2023-05-19T14:24:44;4.38;;;2.55;;
52564;SDS011;38460;53.106;7.004;2023-05-19T14:27:10;8.13;;;3.33;;
52564;SDS011;38460;53.106;7.004;2023-05-19T14:29:35;4.68;;;2.42;;
52564;SDS011;38460;53.106;7.004;2023-05-19T14:32:01;4.43;;;2.65;;
52564;SDS011;38460;53.106;7.004;2023-05-19T14:34:27;7.32;;;2.30;;
52564;SDS011;38460;53.106;7.004;2023-05-19T14:36:53;5.97;;;2.47;;
52564;SDS011;38460;53.106;7.004;2023-05-19T14:39:19;5.15;;;2.38;;
52564;SDS011;38460;53.106;7.004;2023-05-19T14:41:45;3.92;;;2.40;;
52564;SDS011;38460;53.106;7.004;2023-05-19T14:44:11;5.25;;;2.50;;
52564;SDS011;38460;53.106;7.004;2023-05-19T14:46:36;4.95;;;2.65;;
52564;SDS011;38460;53.106;7.004;2023-05-19T14:49:02;4.70;;;2.30;;
52564;SDS011;38460;53.106;7.004;2023-05-19T14:51:30;6.30;;;2.10;;
52564;SDS011;38460;53.106;7.004;2023-05-19T14:53:56;5.95;;;2.50;;
52564;SDS011;38460;53.106;7.004;2023-05-19T14:56:22;4.43;;;2.20;;
52564;SDS011;38460;53.106;7.004;2023-05-19T14:58:47;5.45;;;2.50;;
52564;SDS011;38460;53.106;7.004;2023-05-19T15:01:13;6.50;;;2.42;;
52564;SDS011;38460;53.106;7.004;2023-05-19T15:03:39;5.85;;;2.80;;
52564;SDS011;38460;53.106;7.004;2023-05-19T15:06:08;4.38;;;2.40;;
52564;SDS011;38460;53.106;7.004;2023-05-19T15:08:37;5.68;;;2.92;;
52564;SDS011;38460;53.106;7.004;2023-05-19T15:11:04;7.43;;;3.00;;
52564;SDS011;38460;53.106;7.004;2023-05-19T15:13:30;6.22;;;2.75;;
52564;SDS011;38460;53.106;7.004;2023-05-19T15:15:56;6.78;;;3.00;;
52564;SDS011;38460;53.106;7.004;2023-05-19T15:18:22;6.13;;;2.80;;
52564;SDS011;38460;53.106;7.004;2023-05-19T15:20:47;7.25;;;3.28;;
52564;SDS011;38460;53.106;7.004;2023-05-19T15:23:13;5.75;;;2.92;;
52564;SDS011;38460;53.106;7.004;2023-05-19T15:25:39;6.13;;;3.25;;